sensor_id;sensor_type;location;lat;lon;timestamp;temperature;humidity
55026;DHT22;40925;45.666;18.994;2024-03-23T01:16:13;205.30;2252.80
55026;DHT22;40925;45.666;18.994;2024-03-23T01:18:39;205.00;2252.80
55026;DHT22;40925;45.666;18.994;2024-03-23T01:26:23;204.80;2252.80
55026;DHT22;40925;45.666;18.994;2024-03-23T01:28:52;204.80;2252.80
55026;DHT22;40925;45.666;18.994;2024-03-23T01:31:54;180.10;1894.40
55026;DHT22;40925;45.666;18.994;2024-03-23T01:34:20;180.10;2022.40
55026;DHT22;40925;45.666;18.994;2024-03-23T01:36:46;180.10;2252.80
55026;DHT22;40925;45.666;18.994;2024-03-23T01:39:12;180.10;2252.80
55026;DHT22;40925;45.666;18.994;2024-03-23T01:41:40;180.10;1920.00
55026;DHT22;40925;45.666;18.994;2024-03-23T01:44:08;204.80;2252.80
55026;DHT22;40925;45.666;18.994;2024-03-23T01:46:37;204.90;2252.80
55026;DHT22;40925;45.666;18.994;2024-03-23T01:49:04;204.80;2252.80
55026;DHT22;40925;45.666;18.994;2024-03-23T01:51:30;204.80;2252.80
55026;DHT22;40925;45.666;18.994;2024-03-23T01:54:09;204.80;2252.80
55026;DHT22;40925;45.666;18.994;2024-03-23T01:56:35;204.90;2252.80
55026;DHT22;40925;45.666;18.994;2024-03-23T01:59:07;204.90;2252.80
55026;DHT22;40925;45.666;18.994;2024-03-23T02:01:35;204.90;2252.80
55026;DHT22;40925;45.666;18.994;2024-03-23T02:04:04;204.90;2252.80
55026;DHT22;40925;45.666;18.994;2024-03-23T02:06:29;204.90;2252.80
55026;DHT22;40925;45.666;18.994;2024-03-23T02:08:55;204.90;2252.80
55026;DHT22;40925;45.666;18.994;2024-03-23T02:11:22;204.90;2252.80
55026;DHT22;40925;45.666;18.994;2024-03-23T02:13:47;204.90;2252.80
55026;DHT22;40925;45.666;18.994;2024-03-23T02:16:13;204.90;2252.80
55026;DHT22;40925;45.666;18.994;2024-03-23T02:18:39;204.80;2252.80
55026;DHT22;40925;45.666;18.994;2024-03-23T02:21:05;204.80;2252.80
55026;DHT22;40925;45.666;18.994;2024-03-23T02:23:31;204.80;2252.80
55026;DHT22;40925;45.666;18.994;2024-03-23T02:25:57;204.80;2252.80
55026;DHT22;40925;45.666;18.994;2024-03-23T02:28:22;204.80;2252.80
55026;DHT22;40925;45.666;18.994;2024-03-23T02:30:49;180.10;2252.80
55026;DHT22;40925;45.666;18.994;2024-03-23T02:33:15;180.00;2252.80
55026;DHT22;40925;45.666;18.994;2024-03-23T02:35:42;180.00;2252.80
55026;DHT22;40925;45.666;18.994;2024-03-23T02:38:08;180.00;2252.80
55026;DHT22;40925;45.666;18.994;2024-03-23T02:40:33;180.00;2252.80
55026;DHT22;40925;45.666;18.994;2024-03-23T02:42:59;180.00;2252.80
55026;DHT22;40925;45.666;18.994;2024-03-23T02:45:25;179.90;2252.80
55026;DHT22;40925;45.666;18.994;2024-03-23T02:47:50;179.90;2252.80
55026;DHT22;40925;45.666;18.994;2024-03-23T02:50:19;179.90;2252.80
55026;DHT22;40925;45.666;18.994;2024-03-23T02:52:45;179.90;2252.80
55026;DHT22;40925;45.666;18.994;2024-03-23T02:55:11;179.90;2252.80
55026;DHT22;40925;45.666;18.994;2024-03-23T02:57:37;180.00;2252.80
55026;DHT22;40925;45.666;18.994;2024-03-23T03:00:03;179.90;2252.80
55026;DHT22;40925;45.666;18.994;2024-03-23T03:02:30;179.80;2252.80
55026;DHT22;40925;45.666;18.994;2024-03-23T03:04:56;179.90;2252.80
55026;DHT22;40925;45.666;18.994;2024-03-23T03:07:22;179.90;2252.80
55026;DHT22;40925;45.666;18.994;2024-03-23T03:09:47;179.90;2252.80
55026;DHT22;40925;45.666;18.994;2024-03-23T03:12:13;179.90;2252.80
55026;DHT22;40925;45.666;18.994;2024-03-23T03:14:39;179.90;2252.80
55026;DHT22;40925;45.666;18.994;2024-03-23T03:17:04;179.90;2252.80
55026;DHT22;40925;45.666;18.994;2024-03-23T03:19:33;179.80;2252.80
55026;DHT22;40925;45.666;18.994;2024-03-23T03:21:59;179.80;2252.80
55026;DHT22;40925;45.666;18.994;2024-03-23T03:24:25;179.60;2252.80
55026;DHT22;40925;45.666;18.994;2024-03-23T03:26:50;179.40;2252.80
55026;DHT22;40925;45.666;18.994;2024-03-23T03:29:16;179.30;2252.80
55026;DHT22;40925;45.666;18.994;2024-03-23T03:31:43;179.30;2252.80
55026;DHT22;40925;45.666;18.994;2024-03-23T03:34:08;179.30;2252.80
55026;DHT22;40925;45.666;18.994;2024-03-23T03:36:36;179.30;2252.80
55026;DHT22;40925;45.666;18.994;2024-03-23T03:39:01;179.30;2252.80
55026;DHT22;40925;45.666;18.994;2024-03-23T03:41:31;179.30;2252.80
55026;DHT22;40925;45.666;18.994;2024-03-23T03:43:57;179.30;2252.80
55026;DHT22;40925;45.666;18.994;2024-03-23T03:46:30;179.30;2252.80
55026;DHT22;40925;45.666;18.994;2024-03-23T03:48:55;179.30;2252.80
55026;DHT22;40925;45.666;18.994;2024-03-23T03:51:21;179.30;2252.80
55026;DHT22;40925;45.666;18.994;2024-03-23T03:53:47;179.40;2252.80
55026;DHT22;40925;45.666;18.994;2024-03-23T03:56:13;179.30;2252.80
55026;DHT22;40925;45.666;18.994;2024-03-23T03:58:39;179.40;2252.80
55026;DHT22;40925;45.666;18.994;2024-03-23T04:01:05;179.40;2252.80
55026;DHT22;40925;45.666;18.994;2024-03-23T04:03:31;179.40;2252.80
55026;DHT22;40925;45.666;18.994;2024-03-23T04:05:57;179.30;2252.80
55026;DHT22;40925;45.666;18.994;2024-03-23T04:08:23;179.30;2252.80
55026;DHT22;40925;45.666;18.994;2024-03-23T04:10:50;179.20;2252.80
55026;DHT22;40925;45.666;18.994;2024-03-23T04:13:16;179.20;2252.80
55026;DHT22;40925;45.666;18.994;2024-03-23T04:15:42;179.20;2252.80
55026;DHT22;40925;45.666;18.994;2024-03-23T04:18:08;179.30;2252.80
55026;DHT22;40925;45.666;18.994;2024-03-23T04:20:34;179.30;2252.80
55026;DHT22;40925;45.666;18.994;2024-03-23T04:23:00;179.30;2252.80
55026;DHT22;40925;45.666;18.994;2024-03-23T04:25:26;179.30;2252.80
55026;DHT22;40925;45.666;18.994;2024-03-23T04:27:51;179.20;2252.80
55026;DHT22;40925;45.666;18.994;2024-03-23T04:30:17;179.20;2252.80
55026;DHT22;40925;45.666;18.994;2024-03-23T04:32:44;154.50;2252.80
55026;DHT22;40925;45.666;18.994;2024-03-23T04:35:10;154.50;2252.80
55026;DHT22;40925;45.666;18.994;2024-03-23T04:37:39;154.40;2252.80
55026;DHT22;40925;45.666;18.994;2024-03-23T04:40:08;154.40;2252.80
55026;DHT22;40925;45.666;18.994;2024-03-23T04:42:36;154.40;2252.80
55026;DHT22;40925;45.666;18.994;2024-03-23T04:45:03;179.30;2252.80
55026;DHT22;40925;45.666;18.994;2024-03-23T04:47:29;154.30;2252.80
55026;DHT22;40925;45.666;18.994;2024-03-23T04:49:55;154.30;2252.80
55026;DHT22;40925;45.666;18.994;2024-03-23T04:52:20;154.30;2252.80
55026;DHT22;40925;45.666;18.994;2024-03-23T04:54:46;154.30;2252.80
55026;DHT22;40925;45.666;18.994;2024-03-23T04:57:12;154.30;2252.80
55026;DHT22;40925;45.666;18.994;2024-03-23T04:59:38;154.30;2252.80
55026;DHT22;40925;45.666;18.994;2024-03-23T05:02:04;154.40;2252.80
55026;DHT22;40925;45.666;18.994;2024-03-23T05:04:30;154.40;2252.80
55026;DHT22;40925;45.666;18.994;2024-03-23T05:06:58;154.50;2252.80
55026;DHT22;40925;45.666;18.994;2024-03-23T05:09:24;179.20;2252.80
55026;DHT22;40925;45.666;18.994;2024-03-23T05:11:49;179.30;2252.80
55026;DHT22;40925;45.666;18.994;2024-03-23T05:14:15;179.30;2252.80
55026;DHT22;40925;45.666;18.994;2024-03-23T05:16:41;179.40;2252.80
55026;DHT22;40925;45.666;18.994;2024-03-23T05:19:08;179.50;2252.80
55026;DHT22;40925;45.666;18.994;2024-03-23T05:21:36;179.60;2252.80
55026;DHT22;40925;45.666;18.994;2024-03-23T05:24:02;179.70;2252.80
55026;DHT22;40925;45.666;18.994;2024-03-23T05:26:28;205.30;2252.80
55026;DHT22;40925;45.666;18.994;2024-03-23T05:28:54;180.00;2252.80
55026;DHT22;40925;45.666;18.994;2024-03-23T05:31:31;180.00;2252.80
55026;DHT22;40925;45.666;18.994;2024-03-23T05:33:57;180.10;2252.80
55026;DHT22;40925;45.666;18.994;2024-03-23T05:36:22;204.80;2252.80
55026;DHT22;40925;45.666;18.994;2024-03-23T05:38:50;204.90;2252.80
55026;DHT22;40925;45.666;18.994;2024-03-23T05:41:15;205.00;2252.80
55026;DHT22;40925;45.666;18.994;2024-03-23T05:43:41;205.10;2252.80
55026;DHT22;40925;45.666;18.994;2024-03-23T05:46:07;205.20;2252.80
55026;DHT22;40925;45.666;18.994;2024-03-23T05:48:34;205.30;2252.80
55026;DHT22;40925;45.666;18.994;2024-03-23T05:50:59;205.50;2252.80
55026;DHT22;40925;45.666;18.994;2024-03-23T05:53:25;205.60;2252.80
55026;DHT22;40925;45.666;18.994;2024-03-23T05:55:59;205.70;2252.80
55026;DHT22;40925;45.666;18.994;2024-03-23T05:58:25;230.50;2252.80
55026;DHT22;40925;45.666;18.994;2024-03-23T06:00:57;230.50;2252.80
55026;DHT22;40925;45.666;18.994;2024-03-23T06:03:23;230.60;2252.80
55026;DHT22;40925;45.666;18.994;2024-03-23T06:05:49;230.70;2252.80
55026;DHT22;40925;45.666;18.994;2024-03-23T06:08:14;230.90;2252.80
55026;DHT22;40925;45.666;18.994;2024-03-23T06:10:40;231.00;2252.80
55026;DHT22;40925;45.666;18.994;2024-03-23T06:15:33;307.20;2304.00
55026;DHT22;40925;45.666;18.994;2024-03-23T06:18:06;384.70;2329.60
55026;DHT22;40925;45.666;18.994;2024-03-23T06:20:34;436.10;1971.20
55026;DHT22;40925;45.666;18.994;2024-03-23T06:23:01;486.80;1843.20
55026;DHT22;40925;45.666;18.994;2024-03-23T06:25:27;537.90;1664.00
55026;DHT22;40925;45.666;18.994;2024-03-23T06:27:53;563.70;1561.60
55026;DHT22;40925;45.666;18.994;2024-03-23T06:30:19;563.60;1587.20
55026;DHT22;40925;45.666;18.994;2024-03-23T06:32:44;564.00;1510.40
55026;DHT22;40925;45.666;18.994;2024-03-23T06:35:10;589.10;1408.00
55026;DHT22;40925;45.666;18.994;2024-03-23T06:37:36;588.90;1433.60
55026;DHT22;40925;45.666;18.994;2024-03-23T06:40:02;589.30;1408.00
55026;DHT22;40925;45.666;18.994;2024-03-23T06:42:28;589.70;1382.40
55026;DHT22;40925;45.666;18.994;2024-03-23T06:44:54;589.20;1382.40
55026;DHT22;40925;45.666;18.994;2024-03-23T06:47:27;563.60;1459.20
55026;DHT22;40925;45.666;18.994;2024-03-23T06:49:53;614.40;1356.80
55026;DHT22;40925;45.666;18.994;2024-03-23T06:52:19;640.90;1228.80
55026;DHT22;40925;45.666;18.994;2024-03-23T06:57:11;665.90;1203.20
55026;DHT22;40925;45.666;18.994;2024-03-23T07:04:34;665.60;1203.20
55026;DHT22;40925;45.666;18.994;2024-03-23T07:07:00;666.00;1203.20
55026;DHT22;40925;45.666;18.994;2024-03-23T07:09:30;640.40;1228.80
55026;DHT22;40925;45.666;18.994;2024-03-23T07:11:59;717.00;1152.00
55026;DHT22;40925;45.666;18.994;2024-03-23T07:14:24;691.80;1075.20
55026;DHT22;40925;45.666;18.994;2024-03-23T07:16:51;691.20;1100.80
55026;DHT22;40925;45.666;18.994;2024-03-23T07:19:17;692.00;1075.20
55026;DHT22;40925;45.666;18.994;2024-03-23T07:21:44;692.00;1075.20
55026;DHT22;40925;45.666;18.994;2024-03-23T07:24:10;717.40;1049.60
55026;DHT22;40925;45.666;18.994;2024-03-23T07:26:36;691.40;1100.80
55026;DHT22;40925;45.666;18.994;2024-03-23T07:29:04;691.60;1100.80
55026;DHT22;40925;45.666;18.994;2024-03-23T07:31:30;665.70;1126.40
55026;DHT22;40925;45.666;18.994;2024-03-23T07:33:55;615.10;1177.60
55026;DHT22;40925;45.666;18.994;2024-03-23T07:36:21;563.90;1305.60
55026;DHT22;40925;45.666;18.994;2024-03-23T07:38:47;563.20;1382.40
55026;DHT22;40925;45.666;18.994;2024-03-23T07:41:17;512.40;1433.60
55026;DHT22;40925;45.666;18.994;2024-03-23T07:43:43;512.60;1459.20
55026;DHT22;40925;45.666;18.994;2024-03-23T07:46:09;512.80;1459.20
55026;DHT22;40925;45.666;18.994;2024-03-23T07:48:35;487.20;1484.80
55026;DHT22;40925;45.666;18.994;2024-03-23T07:53:36;461.60;1587.20
55026;DHT22;40925;45.666;18.994;2024-03-23T07:56:07;461.30;1638.40
55026;DHT22;40925;45.666;18.994;2024-03-23T08:11:06;461.50;1638.40
55026;DHT22;40925;45.666;18.994;2024-03-23T08:13:32;461.30;1638.40
55026;DHT22;40925;45.666;18.994;2024-03-23T08:15:59;461.50;1664.00
55026;DHT22;40925;45.666;18.994;2024-03-23T08:18:25;461.40;1638.40
55026;DHT22;40925;45.666;18.994;2024-03-23T08:21:11;460.90;1664.00
55026;DHT22;40925;45.666;18.994;2024-03-23T08:23:37;461.20;1689.60
55026;DHT22;40925;45.666;18.994;2024-03-23T08:26:11;486.40;1664.00
55026;DHT22;40925;45.666;18.994;2024-03-23T08:28:37;486.50;1638.40
55026;DHT22;40925;45.666;18.994;2024-03-23T08:31:10;486.60;1638.40
55026;DHT22;40925;45.666;18.994;2024-03-23T08:33:36;486.60;1612.80
55026;DHT22;40925;45.666;18.994;2024-03-23T08:36:07;486.60;1638.40
55026;DHT22;40925;45.666;18.994;2024-03-23T08:38:33;486.70;1638.40
55026;DHT22;40925;45.666;18.994;2024-03-23T08:41:00;486.50;1612.80
55026;DHT22;40925;45.666;18.994;2024-03-23T08:43:27;486.50;1612.80
55026;DHT22;40925;45.666;18.994;2024-03-23T08:45:53;486.50;1587.20
55026;DHT22;40925;45.666;18.994;2024-03-23T08:48:20;487.00;1587.20
55026;DHT22;40925;45.666;18.994;2024-03-23T08:50:46;486.80;1612.80
55026;DHT22;40925;45.666;18.994;2024-03-23T08:53:12;486.90;1587.20
55026;DHT22;40925;45.666;18.994;2024-03-23T08:55:39;487.00;1587.20
55026;DHT22;40925;45.666;18.994;2024-03-23T08:58:05;486.80;1587.20
55026;DHT22;40925;45.666;18.994;2024-03-23T09:00:34;487.00;1561.60
55026;DHT22;40925;45.666;18.994;2024-03-23T09:02:59;487.20;1561.60
55026;DHT22;40925;45.666;18.994;2024-03-23T09:05:27;487.00;1561.60
55026;DHT22;40925;45.666;18.994;2024-03-23T09:07:54;487.00;1587.20
55026;DHT22;40925;45.666;18.994;2024-03-23T09:10:19;487.20;1561.60
55026;DHT22;40925;45.666;18.994;2024-03-23T09:12:45;487.00;1561.60
55026;DHT22;40925;45.666;18.994;2024-03-23T09:15:11;487.00;1587.20
55026;DHT22;40925;45.666;18.994;2024-03-23T09:17:37;512.10;1561.60
55026;DHT22;40925;45.666;18.994;2024-03-23T09:20:03;512.40;1536.00
55026;DHT22;40925;45.666;18.994;2024-03-23T09:22:29;512.60;1536.00
55026;DHT22;40925;45.666;18.994;2024-03-23T09:24:55;512.30;1536.00
55026;DHT22;40925;45.666;18.994;2024-03-23T09:27:21;512.50;1510.40
55026;DHT22;40925;45.666;18.994;2024-03-23T09:29:47;512.70;1484.80
55026;DHT22;40925;45.666;18.994;2024-03-23T09:32:12;512.50;1510.40
55026;DHT22;40925;45.666;18.994;2024-03-23T09:34:38;512.80;1484.80
55026;DHT22;40925;45.666;18.994;2024-03-23T09:37:04;512.80;1459.20
55026;DHT22;40925;45.666;18.994;2024-03-23T09:39:29;512.90;1459.20
55026;DHT22;40925;45.666;18.994;2024-03-23T09:41:58;512.90;1459.20
55026;DHT22;40925;45.666;18.994;2024-03-23T09:44:24;512.80;1459.20
55026;DHT22;40925;45.666;18.994;2024-03-23T09:46:51;537.90;1510.40
55026;DHT22;40925;45.666;18.994;2024-03-23T09:49:17;537.90;1484.80
55026;DHT22;40925;45.666;18.994;2024-03-23T09:51:43;538.00;1484.80
55026;DHT22;40925;45.666;18.994;2024-03-23T09:54:09;537.70;1484.80
55026;DHT22;40925;45.666;18.994;2024-03-23T09:56:35;538.00;1484.80
55026;DHT22;40925;45.666;18.994;2024-03-23T09:59:02;538.00;1459.20
55026;DHT22;40925;45.666;18.994;2024-03-23T10:01:30;537.80;1510.40
55026;DHT22;40925;45.666;18.994;2024-03-23T10:03:55;538.10;1459.20
55026;DHT22;40925;45.666;18.994;2024-03-23T10:06:22;538.40;1433.60
55026;DHT22;40925;45.666;18.994;2024-03-23T10:08:51;538.10;1433.60
55026;DHT22;40925;45.666;18.994;2024-03-23T10:11:17;538.40;1433.60
55026;DHT22;40925;45.666;18.994;2024-03-23T10:13:43;538.50;1433.60
55026;DHT22;40925;45.666;18.994;2024-03-23T10:16:09;563.70;1433.60
55026;DHT22;40925;45.666;18.994;2024-03-23T10:18:39;563.50;1408.00
55026;DHT22;40925;45.666;18.994;2024-03-23T10:23:38;563.50;1433.60
55026;DHT22;40925;45.666;18.994;2024-03-23T10:26:23;563.80;1433.60
55026;DHT22;40925;45.666;18.994;2024-03-23T10:28:56;563.90;1408.00
55026;DHT22;40925;45.666;18.994;2024-03-23T10:31:25;588.80;1408.00
55026;DHT22;40925;45.666;18.994;2024-03-23T10:33:50;564.00;1408.00
55026;DHT22;40925;45.666;18.994;2024-03-23T10:36:20;564.00;1408.00
55026;DHT22;40925;45.666;18.994;2024-03-23T10:38:53;563.50;1433.60
55026;DHT22;40925;45.666;18.994;2024-03-23T10:41:19;563.70;1433.60
55026;DHT22;40925;45.666;18.994;2024-03-23T10:43:48;563.80;1433.60
55026;DHT22;40925;45.666;18.994;2024-03-23T10:46:14;563.80;1433.60
55026;DHT22;40925;45.666;18.994;2024-03-23T10:48:40;563.30;1408.00
55026;DHT22;40925;45.666;18.994;2024-03-23T10:51:07;563.60;1408.00
55026;DHT22;40925;45.666;18.994;2024-03-23T10:53:38;563.70;1408.00
55026;DHT22;40925;45.666;18.994;2024-03-23T10:56:04;588.80;1356.80
55026;DHT22;40925;45.666;18.994;2024-03-23T10:58:45;588.80;1356.80
55026;DHT22;40925;45.666;18.994;2024-03-23T11:01:15;589.20;1356.80
55026;DHT22;40925;45.666;18.994;2024-03-23T11:03:45;589.60;1331.20
55026;DHT22;40925;45.666;18.994;2024-03-23T11:06:35;614.40;1331.20
55026;DHT22;40925;45.666;18.994;2024-03-23T11:09:01;589.30;1331.20
55026;DHT22;40925;45.666;18.994;2024-03-23T11:11:26;589.30;1356.80
55026;DHT22;40925;45.666;18.994;2024-03-23T11:13:54;589.40;1305.60
55026;DHT22;40925;45.666;18.994;2024-03-23T11:16:25;588.90;1356.80
55026;DHT22;40925;45.666;18.994;2024-03-23T11:19:32;589.00;1356.80
55026;DHT22;40925;45.666;18.994;2024-03-23T11:21:53;589.20;1331.20
55026;DHT22;40925;45.666;18.994;2024-03-23T11:24:20;589.30;1305.60
55026;DHT22;40925;45.666;18.994;2024-03-23T11:26:46;589.60;1280.00
55026;DHT22;40925;45.666;18.994;2024-03-23T11:29:15;589.40;1305.60
55026;DHT22;40925;45.666;18.994;2024-03-23T11:31:51;589.70;1331.20
55026;DHT22;40925;45.666;18.994;2024-03-23T11:34:17;614.70;1305.60
55026;DHT22;40925;45.666;18.994;2024-03-23T11:36:46;614.90;1510.40
55026;DHT22;40925;45.666;18.994;2024-03-23T11:39:19;614.90;1254.40
55026;DHT22;40925;45.666;18.994;2024-03-23T11:41:52;614.80;1228.80
55026;DHT22;40925;45.666;18.994;2024-03-23T11:44:19;614.80;1280.00
55026;DHT22;40925;45.666;18.994;2024-03-23T11:46:46;615.00;1228.80
55026;DHT22;40925;45.666;18.994;2024-03-23T11:49:25;615.20;1203.20
55026;DHT22;40925;45.666;18.994;2024-03-23T11:51:51;589.70;1254.40
55026;DHT22;40925;45.666;18.994;2024-03-23T11:54:24;614.80;1228.80
55026;DHT22;40925;45.666;18.994;2024-03-23T11:57:00;614.70;1228.80
55026;DHT22;40925;45.666;18.994;2024-03-23T11:59:41;615.00;1228.80
55026;DHT22;40925;45.666;18.994;2024-03-23T12:02:09;614.70;1228.80
55026;DHT22;40925;45.666;18.994;2024-03-23T12:04:36;614.70;1228.80
55026;DHT22;40925;45.666;18.994;2024-03-23T12:07:15;614.70;1228.80
55026;DHT22;40925;45.666;18.994;2024-03-23T12:09:45;614.80;1203.20
55026;DHT22;40925;45.666;18.994;2024-03-23T12:12:18;614.70;1228.80
55026;DHT22;40925;45.666;18.994;2024-03-23T12:15:04;615.20;1177.60
55026;DHT22;40925;45.666;18.994;2024-03-23T12:17:31;640.20;1152.00
55026;DHT22;40925;45.666;18.994;2024-03-23T12:19:57;640.50;1152.00
55026;DHT22;40925;45.666;18.994;2024-03-23T12:22:25;640.60;1152.00
55026;DHT22;40925;45.666;18.994;2024-03-23T12:24:52;615.20;1152.00
55026;DHT22;40925;45.666;18.994;2024-03-23T12:27:17;615.30;1152.00
55026;DHT22;40925;45.666;18.994;2024-03-23T12:29:43;640.30;1152.00
55026;DHT22;40925;45.666;18.994;2024-03-23T12:32:14;615.30;1177.60
55026;DHT22;40925;45.666;18.994;2024-03-23T12:34:40;640.10;1177.60
55026;DHT22;40925;45.666;18.994;2024-03-23T12:37:07;615.30;1177.60
55026;DHT22;40925;45.666;18.994;2024-03-23T12:39:33;640.40;1152.00
55026;DHT22;40925;45.666;18.994;2024-03-23T12:42:03;640.40;1152.00
55026;DHT22;40925;45.666;18.994;2024-03-23T12:44:29;640.00;1126.40
55026;DHT22;40925;45.666;18.994;2024-03-23T12:46:55;640.30;1126.40
55026;DHT22;40925;45.666;18.994;2024-03-23T12:49:21;615.30;1152.00
55026;DHT22;40925;45.666;18.994;2024-03-23T12:51:53;640.30;1152.00
55026;DHT22;40925;45.666;18.994;2024-03-23T12:54:20;615.20;1152.00
55026;DHT22;40925;45.666;18.994;2024-03-23T12:56:46;615.10;1152.00
55026;DHT22;40925;45.666;18.994;2024-03-23T12:59:11;615.00;1152.00
55026;DHT22;40925;45.666;18.994;2024-03-23T13:01:38;614.70;1177.60
55026;DHT22;40925;45.666;18.994;2024-03-23T13:04:04;615.30;1152.00
55026;DHT22;40925;45.666;18.994;2024-03-23T13:06:30;615.20;1177.60
55026;DHT22;40925;45.666;18.994;2024-03-23T13:09:03;615.30;1152.00
55026;DHT22;40925;45.666;18.994;2024-03-23T13:11:30;640.30;1152.00
55026;DHT22;40925;45.666;18.994;2024-03-23T13:13:56;640.40;1126.40
55026;DHT22;40925;45.666;18.994;2024-03-23T13:16:21;615.30;1152.00
55026;DHT22;40925;45.666;18.994;2024-03-23T13:18:47;615.10;1177.60
55026;DHT22;40925;45.666;18.994;2024-03-23T13:21:13;614.70;1152.00
55026;DHT22;40925;45.666;18.994;2024-03-23T13:23:39;614.40;1177.60
55026;DHT22;40925;45.666;18.994;2024-03-23T13:26:07;614.40;1177.60
55026;DHT22;40925;45.666;18.994;2024-03-23T13:28:33;589.60;1203.20
55026;DHT22;40925;45.666;18.994;2024-03-23T13:30:59;589.70;1203.20
55026;DHT22;40925;45.666;18.994;2024-03-23T13:33:29;589.20;1203.20
55026;DHT22;40925;45.666;18.994;2024-03-23T13:35:55;589.30;1203.20
55026;DHT22;40925;45.666;18.994;2024-03-23T13:38:22;589.40;1203.20
55026;DHT22;40925;45.666;18.994;2024-03-23T13:40:58;589.60;1228.80
55026;DHT22;40925;45.666;18.994;2024-03-23T13:43:26;589.50;1203.20
55026;DHT22;40925;45.666;18.994;2024-03-23T13:45:56;589.40;1228.80
55026;DHT22;40925;45.666;18.994;2024-03-23T13:48:24;589.60;1203.20
55026;DHT22;40925;45.666;18.994;2024-03-23T14:04:40;589.70;1177.60
55026;DHT22;40925;45.666;18.994;2024-03-23T14:07:05;614.50;1177.60
55026;DHT22;40925;45.666;18.994;2024-03-23T14:09:32;589.70;1203.20
55026;DHT22;40925;45.666;18.994;2024-03-23T14:11:58;589.60;1203.20
55026;DHT22;40925;45.666;18.994;2024-03-23T14:14:25;589.40;1177.60
55026;DHT22;40925;45.666;18.994;2024-03-23T14:16:51;589.60;1203.20
55026;DHT22;40925;45.666;18.994;2024-03-23T14:19:17;589.70;1177.60
55026;DHT22;40925;45.666;18.994;2024-03-23T14:21:42;589.60;1203.20
55026;DHT22;40925;45.666;18.994;2024-03-23T14:24:08;589.20;1203.20
55026;DHT22;40925;45.666;18.994;2024-03-23T14:26:35;589.20;1177.60
55026;DHT22;40925;45.666;18.994;2024-03-23T14:29:01;589.10;1203.20
55026;DHT22;40925;45.666;18.994;2024-03-23T14:31:26;589.00;1203.20
55026;DHT22;40925;45.666;18.994;2024-03-23T14:33:52;588.90;1228.80
55026;DHT22;40925;45.666;18.994;2024-03-23T14:36:18;588.80;1203.20
55026;DHT22;40925;45.666;18.994;2024-03-23T14:38:50;588.90;1203.20
55026;DHT22;40925;45.666;18.994;2024-03-23T14:41:16;589.00;1203.20
55026;DHT22;40925;45.666;18.994;2024-03-23T14:43:41;588.90;1203.20
55026;DHT22;40925;45.666;18.994;2024-03-23T14:46:14;588.90;1228.80
55026;DHT22;40925;45.666;18.994;2024-03-23T14:48:40;588.80;1228.80
55026;DHT22;40925;45.666;18.994;2024-03-23T14:51:07;588.80;1203.20
55026;DHT22;40925;45.666;18.994;2024-03-23T14:53:40;564.00;1228.80
55026;DHT22;40925;45.666;18.994;2024-03-23T14:56:09;564.00;1254.40
55026;DHT22;40925;45.666;18.994;2024-03-23T14:58:37;563.90;1254.40
55026;DHT22;40925;45.666;18.994;2024-03-23T15:01:07;563.80;1228.80
55026;DHT22;40925;45.666;18.994;2024-03-23T15:03:39;563.80;1228.80
55026;DHT22;40925;45.666;18.994;2024-03-23T15:06:05;563.70;1228.80
55026;DHT22;40925;45.666;18.994;2024-03-23T15:08:31;563.70;1228.80
55026;DHT22;40925;45.666;18.994;2024-03-23T15:11:00;563.70;1228.80
55026;DHT22;40925;45.666;18.994;2024-03-23T15:13:33;563.60;1254.40
55026;DHT22;40925;45.666;18.994;2024-03-23T15:15:59;563.60;1254.40
55026;DHT22;40925;45.666;18.994;2024-03-23T15:18:25;563.60;1254.40
55026;DHT22;40925;45.666;18.994;2024-03-23T15:20:55;563.50;1254.40
55026;DHT22;40925;45.666;18.994;2024-03-23T15:23:21;563.50;1254.40
55026;DHT22;40925;45.666;18.994;2024-03-23T15:26:02;563.50;1254.40
55026;DHT22;40925;45.666;18.994;2024-03-23T15:28:29;563.60;1280.00
55026;DHT22;40925;45.666;18.994;2024-03-23T15:31:09;563.60;1280.00
55026;DHT22;40925;45.666;18.994;2024-03-23T15:33:35;563.50;1280.00
55026;DHT22;40925;45.666;18.994;2024-03-23T15:36:02;563.50;1280.00
55026;DHT22;40925;45.666;18.994;2024-03-23T15:38:28;563.40;1280.00
55026;DHT22;40925;45.666;18.994;2024-03-23T15:40:57;563.40;1280.00
55026;DHT22;40925;45.666;18.994;2024-03-23T15:43:23;563.30;1280.00
55026;DHT22;40925;45.666;18.994;2024-03-23T15:45:56;563.30;1305.60
55026;DHT22;40925;45.666;18.994;2024-03-23T15:48:22;563.30;1305.60
55026;DHT22;40925;45.666;18.994;2024-03-23T15:50:54;563.30;1305.60
55026;DHT22;40925;45.666;18.994;2024-03-23T15:53:20;563.20;1305.60
55026;DHT22;40925;45.666;18.994;2024-03-23T15:55:56;563.30;1305.60
55026;DHT22;40925;45.666;18.994;2024-03-23T15:58:26;563.20;1305.60
55026;DHT22;40925;45.666;18.994;2024-03-23T16:01:06;538.50;1280.00
55026;DHT22;40925;45.666;18.994;2024-03-23T16:03:34;563.20;1305.60
55026;DHT22;40925;45.666;18.994;2024-03-23T16:06:05;538.50;1280.00
55026;DHT22;40925;45.666;18.994;2024-03-23T16:08:33;538.50;1280.00
55026;DHT22;40925;45.666;18.994;2024-03-23T16:11:02;538.50;1305.60
55026;DHT22;40925;45.666;18.994;2024-03-23T16:13:28;538.40;1305.60
55026;DHT22;40925;45.666;18.994;2024-03-23T16:15:59;538.40;1305.60
55026;DHT22;40925;45.666;18.994;2024-03-23T16:18:25;538.40;1305.60
55026;DHT22;40925;45.666;18.994;2024-03-23T16:20:59;538.40;1305.60
55026;DHT22;40925;45.666;18.994;2024-03-23T16:23:25;538.40;1305.60
55026;DHT22;40925;45.666;18.994;2024-03-23T16:25:54;538.40;1305.60
55026;DHT22;40925;45.666;18.994;2024-03-23T16:28:24;538.40;1305.60
55026;DHT22;40925;45.666;18.994;2024-03-23T16:30:56;538.40;1305.60
55026;DHT22;40925;45.666;18.994;2024-03-23T16:33:22;538.50;1331.20
55026;DHT22;40925;45.666;18.994;2024-03-23T16:36:04;538.50;1331.20
55026;DHT22;40925;45.666;18.994;2024-03-23T16:38:30;538.50;1331.20
55026;DHT22;40925;45.666;18.994;2024-03-23T16:41:00;538.50;1331.20